createdAt,value
2019-06-15T00:03:41.162Z,18.75
2019-06-15T00:08:46.329Z,17.60
2019-06-15T00:13:51.367Z,21.05
2019-06-15T00:18:56.477Z,23.60
2019-06-15T00:24:01.880Z,18.27
2019-06-15T00:29:07.398Z,17.55
2019-06-15T00:34:12.516Z,18.30
2019-06-15T00:39:17.634Z,18.07
2019-06-15T00:44:22.842Z,19.12
2019-06-15T00:49:28.271Z,21.52
2019-06-15T00:54:33.308Z,19.90
2019-06-15T00:59:38.447Z,19.45
2019-06-15T01:04:43.548Z,18.40
2019-06-15T01:09:49.764Z,16.82
2019-06-15T01:14:55.214Z,18.98
2019-06-15T01:20:01.368Z,18.60
2019-06-15T01:25:07.843Z,18.37
2019-06-15T01:30:13.116Z,18.92
2019-06-15T01:35:18.568Z,19.17
2019-06-15T01:40:23.716Z,20.40
2019-06-15T01:45:28.773Z,19.70
2019-06-15T01:50:33.823Z,19.37
2019-06-15T01:55:39.169Z,19.82
2019-06-15T02:00:44.243Z,19.30
2019-06-15T02:05:49.347Z,19.52
2019-06-15T02:10:54.490Z,20.75
2019-06-15T02:16:02.276Z,20.15
2019-06-15T02:21:07.447Z,23.50
2019-06-15T02:26:12.888Z,21.65
2019-06-15T02:31:17.935Z,20.70
2019-06-15T02:36:23.035Z,20.60
2019-06-15T02:41:28.065Z,20.08
2019-06-15T02:46:33.122Z,20.35
2019-06-15T02:51:38.733Z,22.32
2019-06-15T02:56:46.818Z,21.80
2019-06-15T03:01:51.935Z,22.35
2019-06-15T03:06:57.008Z,23.67
2019-06-15T03:12:02.357Z,21.42
2019-06-15T03:17:07.464Z,20.32
2019-06-15T03:22:12.557Z,19.98
2019-06-15T03:27:17.745Z,21.70
2019-06-15T03:32:22.865Z,21.10
2019-06-15T03:37:27.985Z,23.15
2019-06-15T03:42:33.049Z,21.20
2019-06-15T03:47:38.137Z,24.20
2019-06-15T03:52:43.293Z,20.37
2019-06-15T03:57:48.409Z,20.52
2019-06-15T04:02:53.472Z,23.73
2019-06-15T04:07:58.547Z,19.52
2019-06-15T04:13:03.677Z,20.45
2019-06-15T04:18:08.742Z,19.92
2019-06-15T04:23:13.875Z,21.23
2019-06-15T04:28:19.030Z,21.65
2019-06-15T04:33:24.074Z,20.70
2019-06-15T04:38:29.080Z,21.70
2019-06-15T04:43:34.209Z,21.75
2019-06-15T04:48:39.630Z,21.73
2019-06-15T04:53:44.729Z,22.20
2019-06-15T04:58:50.081Z,22.13
2019-06-15T05:03:55.154Z,21.70
2019-06-15T05:09:00.317Z,22.17
2019-06-15T05:14:06.157Z,22.10
2019-06-15T05:19:11.174Z,22.90
2019-06-15T05:24:16.286Z,22.22
2019-06-15T05:29:21.385Z,28.20
2019-06-15T05:34:26.420Z,24.47
2019-06-15T05:39:31.499Z,23.87
2019-06-15T05:44:36.579Z,24.07
2019-06-15T05:49:41.649Z,23.55
2019-06-15T05:54:49.044Z,22.67
2019-06-15T05:59:54.217Z,24.12
2019-06-15T06:04:59.429Z,22.17
2019-06-15T06:10:05.060Z,24.92
2019-06-15T06:15:10.544Z,25.32
2019-06-15T06:20:16.037Z,25.60
2019-06-15T06:25:21.106Z,26.37
2019-06-15T06:30:26.152Z,25.65
2019-06-15T06:35:31.230Z,25.20
2019-06-15T06:40:36.284Z,26.20
2019-06-15T06:45:41.351Z,26.80
2019-06-15T06:50:46.473Z,30.15
2019-06-15T06:55:51.556Z,29.82
2019-06-15T07:00:56.591Z,27.70
2019-06-15T07:06:01.633Z,27.90
2019-06-15T07:11:07.473Z,32.83
2019-06-15T07:16:12.585Z,31.50
2019-06-15T07:21:18.011Z,30.23
2019-06-15T07:26:23.207Z,30.00
2019-06-15T07:31:28.515Z,27.48
2019-06-15T07:36:33.894Z,30.23
2019-06-15T07:41:39.016Z,27.30
2019-06-15T07:46:44.092Z,28.45
2019-06-15T07:51:49.484Z,28.00
2019-06-15T07:56:54.555Z,28.83
2019-06-15T08:01:59.735Z,25.80
2019-06-15T08:07:04.875Z,24.57
2019-06-15T08:12:10.871Z,26.82
2019-06-15T08:17:16.006Z,26.90
2019-06-15T08:22:21.342Z,26.60
2019-06-15T08:27:26.851Z,27.23
2019-06-15T08:32:31.893Z,26.02
2019-06-15T08:37:36.943Z,25.52
2019-06-15T08:42:41.983Z,28.35
2019-06-15T08:47:47.050Z,28.42
2019-06-15T08:52:52.159Z,28.02
2019-06-15T08:57:57.244Z,25.77
2019-06-15T09:03:02.337Z,24.83
2019-06-15T09:08:07.471Z,23.43
2019-06-15T09:13:12.805Z,25.82
2019-06-15T09:18:18.098Z,26.87
2019-06-15T09:23:23.327Z,26.20
2019-06-15T09:28:33.626Z,24.32
2019-06-15T09:33:38.707Z,25.23
2019-06-15T09:38:44.481Z,25.48
2019-06-15T09:43:49.629Z,25.45
2019-06-15T09:48:54.727Z,29.67
2019-06-15T09:53:59.806Z,31.52
2019-06-15T09:59:04.866Z,30.70
2019-06-15T10:04:09.960Z,26.93
2019-06-15T10:09:15.091Z,30.25
2019-06-15T10:14:20.193Z,27.67
2019-06-15T10:19:56.267Z,27.33
2019-06-15T10:25:01.424Z,28.12
2019-06-15T10:30:07.657Z,26.82
2019-06-15T10:35:12.862Z,22.05
2019-06-15T10:40:18.725Z,24.77
2019-06-15T10:45:24.195Z,23.95
2019-06-15T10:50:29.362Z,26.27
2019-06-15T10:55:34.610Z,24.17
2019-06-15T11:00:40.350Z,25.40
2019-06-15T11:05:45.838Z,25.00
2019-06-15T11:11:21.622Z,24.27
2019-06-15T11:16:25.749Z,23.40
2019-06-15T11:21:30.842Z,25.67
2019-06-15T11:26:36.147Z,25.27
2019-06-15T11:31:41.707Z,27.17
2019-06-15T11:36:47.404Z,25.80
2019-06-15T11:41:53.299Z,25.30
2019-06-15T11:46:58.859Z,21.80
2019-06-15T11:52:04.397Z,21.45
2019-06-15T11:57:09.502Z,22.37
2019-06-15T12:02:14.677Z,21.43
2019-06-15T12:07:19.967Z,18.05
2019-06-15T12:12:25.028Z,19.17
2019-06-15T12:17:30.256Z,23.60
2019-06-15T12:22:35.478Z,22.42
2019-06-15T12:27:40.650Z,24.23
2019-06-15T12:32:45.799Z,23.50
2019-06-15T12:37:51.881Z,23.70
2019-06-15T12:42:56.963Z,21.75
2019-06-15T12:48:03.294Z,20.60
2019-06-15T12:53:09.632Z,22.27
2019-06-15T12:58:15.179Z,23.83
2019-06-15T13:03:20.294Z,22.25
2019-06-15T13:08:25.569Z,26.20
2019-06-15T13:13:31.104Z,20.20
2019-06-15T13:18:36.292Z,22.53
2019-06-15T13:23:43.535Z,22.13
2019-06-15T13:28:51.137Z,21.15
2019-06-15T13:33:55.491Z,21.07
2019-06-15T13:39:00.709Z,22.22
2019-06-15T13:44:07.546Z,23.90
2019-06-15T13:49:12.682Z,22.90
2019-06-15T13:54:18.635Z,24.02
2019-06-15T13:59:26.516Z,21.62
2019-06-15T14:04:31.748Z,25.40
2019-06-15T14:09:42.313Z,21.33
2019-06-15T14:14:54.066Z,22.80
2019-06-15T14:19:59.441Z,21.83
2019-06-15T14:25:07.175Z,22.48
2019-06-15T14:30:12.802Z,19.40
2019-06-15T14:35:18.102Z,21.87
2019-06-15T14:40:23.605Z,20.70
2019-06-15T14:45:28.844Z,25.00
2019-06-15T14:50:34.044Z,22.53
2019-06-15T14:55:39.225Z,24.00
2019-06-15T15:00:46.670Z,23.60
2019-06-15T15:05:51.703Z,21.43
2019-06-15T15:10:57.202Z,23.87
2019-06-15T15:16:02.402Z,22.73
2019-06-15T15:21:07.561Z,21.90
2019-06-15T15:26:12.973Z,22.73
2019-06-15T15:31:18.067Z,19.93
2019-06-15T15:36:26.307Z,20.00
2019-06-15T15:41:30.893Z,21.10
2019-06-15T15:46:36.477Z,18.17
2019-06-15T15:51:41.880Z,19.92
2019-06-15T15:56:47.127Z,21.17
2019-06-15T16:01:52.760Z,20.88
2019-06-15T16:06:58.109Z,24.30
2019-06-15T16:12:03.182Z,19.62
2019-06-15T16:17:08.302Z,18.75
2019-06-15T16:22:13.435Z,15.30
2019-06-15T16:27:18.650Z,17.15
2019-06-15T16:32:26.228Z,18.70
2019-06-15T16:37:31.038Z,18.00
2019-06-15T16:42:36.693Z,16.45
2019-06-15T16:47:43.442Z,19.50
2019-06-15T16:52:48.600Z,16.35
2019-06-15T16:57:56.648Z,16.65
2019-06-15T17:03:17.476Z,15.72
2019-06-15T17:08:09.377Z,14.40
2019-06-15T17:13:16.050Z,15.60
2019-06-15T17:18:23.456Z,18.98
2019-06-15T17:23:28.509Z,16.77
2019-06-15T17:28:36.993Z,17.82
2019-06-15T17:33:41.888Z,15.48
2019-06-15T17:38:46.934Z,14.53
2019-06-15T17:43:52.429Z,15.50
2019-06-15T17:48:57.653Z,14.55
2019-06-15T17:54:06.641Z,16.40
2019-06-15T17:59:11.870Z,13.93
2019-06-15T18:04:18.295Z,14.47
2019-06-15T18:09:25.778Z,13.32
2019-06-15T18:14:30.623Z,14.13
2019-06-15T18:19:36.965Z,15.53
2019-06-15T18:24:42.222Z,13.40
2019-06-15T18:29:47.671Z,14.10
2019-06-15T18:34:52.857Z,14.47
2019-06-15T18:39:58.072Z,15.70
2019-06-15T18:45:03.209Z,11.20
2019-06-15T18:50:11.293Z,13.48
2019-06-15T18:55:16.710Z,13.78
2019-06-15T19:00:21.817Z,13.08
2019-06-15T19:05:27.090Z,12.60
2019-06-15T19:10:33.318Z,14.47
2019-06-15T19:15:38.392Z,18.67
2019-06-15T19:20:43.923Z,14.53
2019-06-15T19:25:48.965Z,13.72
2019-06-15T19:30:56.142Z,14.80
2019-06-15T19:36:01.628Z,13.85
2019-06-15T19:41:07.125Z,14.58
2019-06-15T19:46:12.462Z,15.58
2019-06-15T19:51:17.641Z,14.07
2019-06-15T19:56:22.908Z,13.88
2019-06-15T20:01:28.864Z,19.07
2019-06-15T20:06:36.874Z,19.35
2019-06-15T20:11:41.838Z,13.80
2019-06-15T20:16:47.194Z,14.03
2019-06-15T20:21:52.263Z,12.40
2019-06-15T20:26:58.593Z,12.68
2019-06-15T20:32:06.656Z,16.52
2019-06-15T20:37:11.318Z,26.93
2019-06-15T20:42:16.639Z,12.53
2019-06-15T20:47:21.894Z,11.68
2019-06-15T20:52:27.051Z,11.78
2019-06-15T20:57:32.281Z,12.80
2019-06-15T21:02:37.855Z,14.07
2019-06-15T21:07:43.261Z,13.15
2019-06-15T21:12:48.369Z,13.65
2019-06-15T21:17:53.511Z,12.47
2019-06-15T21:22:58.580Z,11.85
2019-06-15T21:28:06.456Z,19.98
2019-06-15T21:33:11.601Z,10.93
2019-06-15T21:38:16.679Z,13.70
2019-06-15T21:43:21.858Z,12.05
2019-06-15T21:48:28.194Z,12.50
2019-06-15T21:53:33.370Z,16.77
2019-06-15T21:58:38.601Z,12.40
2019-06-15T22:03:46.319Z,12.68
2019-06-15T22:08:51.562Z,13.18
2019-06-15T22:13:57.693Z,12.88
2019-06-15T22:19:02.988Z,12.05
2019-06-15T22:24:08.101Z,13.08
2019-06-15T22:29:16.590Z,12.78
2019-06-15T22:34:20.861Z,11.70
2019-06-15T22:39:26.899Z,12.60
2019-06-15T22:44:32.190Z,12.15
2019-06-15T22:49:37.424Z,13.22
2019-06-15T22:54:42.780Z,12.65
2019-06-15T22:59:48.273Z,13.35
2019-06-15T23:04:53.256Z,13.20
2019-06-15T23:09:58.297Z,13.75
2019-06-15T23:15:07.079Z,12.60
2019-06-15T23:20:11.433Z,12.60
2019-06-15T23:25:16.943Z,13.13
2019-06-15T23:30:22.243Z,13.43
2019-06-15T23:35:32.322Z,12.85
2019-06-15T23:40:37.468Z,12.80
2019-06-15T23:45:42.522Z,12.90
2019-06-15T23:50:47.638Z,14.68
2019-06-15T23:55:53.494Z,12.80
